sensor_id;sensor_type;location;lat;lon;timestamp;temperature;humidity
75685;HTU21D;64298;46.050;38.164;2024-03-23T00:54:24;4.22;69.43
75685;HTU21D;64298;46.050;38.164;2024-03-23T00:56:50;4.26;69.30
75685;HTU21D;64298;46.050;38.164;2024-03-23T00:59:16;4.28;69.23
75685;HTU21D;64298;46.050;38.164;2024-03-23T01:01:42;4.29;69.29
75685;HTU21D;64298;46.050;38.164;2024-03-23T01:04:08;4.28;69.34
75685;HTU21D;64298;46.050;38.164;2024-03-23T01:06:34;4.28;69.46
75685;HTU21D;64298;46.050;38.164;2024-03-23T01:09:00;4.26;69.62
75685;HTU21D;64298;46.050;38.164;2024-03-23T01:11:26;4.21;69.72
75685;HTU21D;64298;46.050;38.164;2024-03-23T01:13:53;4.17;69.96
75685;HTU21D;64298;46.050;38.164;2024-03-23T01:16:21;4.18;69.88
75685;HTU21D;64298;46.050;38.164;2024-03-23T01:18:47;4.18;69.81
75685;HTU21D;64298;46.050;38.164;2024-03-23T01:21:13;4.18;69.88
75685;HTU21D;64298;46.050;38.164;2024-03-23T01:23:39;4.15;69.98
75685;HTU21D;64298;46.050;38.164;2024-03-23T01:26:05;4.14;69.98
75685;HTU21D;64298;46.050;38.164;2024-03-23T01:28:31;4.18;69.84
75685;HTU21D;64298;46.050;38.164;2024-03-23T01:30:57;4.18;69.85
75685;HTU21D;64298;46.050;38.164;2024-03-23T01:33:23;4.17;69.89
75685;HTU21D;64298;46.050;38.164;2024-03-23T01:35:49;4.15;70.06
75685;HTU21D;64298;46.050;38.164;2024-03-23T01:38:15;4.14;70.07
75685;HTU21D;64298;46.050;38.164;2024-03-23T01:40:41;4.14;70.07
75685;HTU21D;64298;46.050;38.164;2024-03-23T01:43:07;4.14;70.09
75685;HTU21D;64298;46.050;38.164;2024-03-23T01:45:34;4.15;70.04
75685;HTU21D;64298;46.050;38.164;2024-03-23T01:48:01;4.15;70.03
75685;HTU21D;64298;46.050;38.164;2024-03-23T01:50:27;4.15;69.92
75685;HTU21D;64298;46.050;38.164;2024-03-23T01:52:54;4.17;69.87
75685;HTU21D;64298;46.050;38.164;2024-03-23T01:55:20;4.17;70.00
75685;HTU21D;64298;46.050;38.164;2024-03-23T01:57:46;4.15;69.95
75685;HTU21D;64298;46.050;38.164;2024-03-23T02:00:12;4.16;69.94
75685;HTU21D;64298;46.050;38.164;2024-03-23T02:02:45;4.15;69.97
75685;HTU21D;64298;46.050;38.164;2024-03-23T02:05:12;4.16;69.91
75685;HTU21D;64298;46.050;38.164;2024-03-23T02:07:39;4.17;69.80
75685;HTU21D;64298;46.050;38.164;2024-03-23T02:10:09;4.15;69.87
75685;HTU21D;64298;46.050;38.164;2024-03-23T02:12:36;4.14;69.82
75685;HTU21D;64298;46.050;38.164;2024-03-23T02:15:03;4.14;69.91
75685;HTU21D;64298;46.050;38.164;2024-03-23T02:17:33;4.13;69.97
75685;HTU21D;64298;46.050;38.164;2024-03-23T02:19:59;4.10;70.10
75685;HTU21D;64298;46.050;38.164;2024-03-23T02:22:37;4.06;70.15
75685;HTU21D;64298;46.050;38.164;2024-03-23T02:25:04;4.06;70.17
75685;HTU21D;64298;46.050;38.164;2024-03-23T02:27:30;4.05;70.11
75685;HTU21D;64298;46.050;38.164;2024-03-23T02:29:56;4.04;70.24
75685;HTU21D;64298;46.050;38.164;2024-03-23T02:32:22;4.04;70.21
75685;HTU21D;64298;46.050;38.164;2024-03-23T02:34:48;4.03;70.25
75685;HTU21D;64298;46.050;38.164;2024-03-23T02:37:14;4.05;70.28
75685;HTU21D;64298;46.050;38.164;2024-03-23T02:39:40;4.03;70.23
75685;HTU21D;64298;46.050;38.164;2024-03-23T02:42:06;4.03;70.22
75685;HTU21D;64298;46.050;38.164;2024-03-23T02:44:32;4.03;70.19
75685;HTU21D;64298;46.050;38.164;2024-03-23T02:46:58;4.02;70.21
75685;HTU21D;64298;46.050;38.164;2024-03-23T02:49:24;4.01;70.24
75685;HTU21D;64298;46.050;38.164;2024-03-23T02:51:50;4.02;70.12
75685;HTU21D;64298;46.050;38.164;2024-03-23T02:54:16;4.04;70.10
75685;HTU21D;64298;46.050;38.164;2024-03-23T02:56:42;4.03;70.14
75685;HTU21D;64298;46.050;38.164;2024-03-23T02:59:08;4.05;70.17
75685;HTU21D;64298;46.050;38.164;2024-03-23T03:01:34;4.04;70.10
75685;HTU21D;64298;46.050;38.164;2024-03-23T03:04:18;4.07;70.03
75685;HTU21D;64298;46.050;38.164;2024-03-23T03:06:47;4.06;70.13
75685;HTU21D;64298;46.050;38.164;2024-03-23T03:09:13;4.04;70.17
75685;HTU21D;64298;46.050;38.164;2024-03-23T03:11:39;4.05;70.15
75685;HTU21D;64298;46.050;38.164;2024-03-23T03:14:05;4.03;70.42
75685;HTU21D;64298;46.050;38.164;2024-03-23T03:16:33;4.01;70.55
75685;HTU21D;64298;46.050;38.164;2024-03-23T03:18:59;4.00;70.51
75685;HTU21D;64298;46.050;38.164;2024-03-23T03:21:25;4.02;70.35
75685;HTU21D;64298;46.050;38.164;2024-03-23T03:23:51;4.04;70.29
75685;HTU21D;64298;46.050;38.164;2024-03-23T03:26:17;4.05;70.43
75685;HTU21D;64298;46.050;38.164;2024-03-23T03:28:43;4.05;70.53
75685;HTU21D;64298;46.050;38.164;2024-03-23T03:31:10;4.03;70.63
75685;HTU21D;64298;46.050;38.164;2024-03-23T03:33:36;4.02;70.66
75685;HTU21D;64298;46.050;38.164;2024-03-23T03:36:02;4.02;70.57
75685;HTU21D;64298;46.050;38.164;2024-03-23T03:38:28;4.05;70.48
75685;HTU21D;64298;46.050;38.164;2024-03-23T03:40:55;4.07;70.48
75685;HTU21D;64298;46.050;38.164;2024-03-23T03:43:21;4.14;70.35
75685;HTU21D;64298;46.050;38.164;2024-03-23T03:45:57;4.16;70.23
75685;HTU21D;64298;46.050;38.164;2024-03-23T03:48:42;4.19;70.21
75685;HTU21D;64298;46.050;38.164;2024-03-23T03:51:10;4.21;70.16
75685;HTU21D;64298;46.050;38.164;2024-03-23T03:53:36;4.22;70.15
75685;HTU21D;64298;46.050;38.164;2024-03-23T03:56:03;4.24;70.10
75685;HTU21D;64298;46.050;38.164;2024-03-23T03:58:28;4.28;69.98
75685;HTU21D;64298;46.050;38.164;2024-03-23T04:00:55;4.29;70.07
75685;HTU21D;64298;46.050;38.164;2024-03-23T04:03:20;4.31;70.00
75685;HTU21D;64298;46.050;38.164;2024-03-23T04:05:54;4.34;69.90
75685;HTU21D;64298;46.050;38.164;2024-03-23T04:08:21;4.41;69.80
75685;HTU21D;64298;46.050;38.164;2024-03-23T04:10:47;4.45;69.74
75685;HTU21D;64298;46.050;38.164;2024-03-23T04:13:13;4.48;69.71
75685;HTU21D;64298;46.050;38.164;2024-03-23T04:15:40;4.52;69.65
75685;HTU21D;64298;46.050;38.164;2024-03-23T04:18:06;4.54;69.60
75685;HTU21D;64298;46.050;38.164;2024-03-23T04:20:32;4.58;69.58
75685;HTU21D;64298;46.050;38.164;2024-03-23T04:23:01;4.59;69.71
75685;HTU21D;64298;46.050;38.164;2024-03-23T04:25:27;4.59;69.83
75685;HTU21D;64298;46.050;38.164;2024-03-23T04:27:53;4.62;69.80
75685;HTU21D;64298;46.050;38.164;2024-03-23T04:30:19;4.65;69.83
75685;HTU21D;64298;46.050;38.164;2024-03-23T04:32:45;4.67;69.88
75685;HTU21D;64298;46.050;38.164;2024-03-23T04:35:11;4.72;69.81
75685;HTU21D;64298;46.050;38.164;2024-03-23T04:37:40;4.73;69.86
75685;HTU21D;64298;46.050;38.164;2024-03-23T04:40:09;4.77;69.73
75685;HTU21D;64298;46.050;38.164;2024-03-23T04:42:36;4.83;69.61
75685;HTU21D;64298;46.050;38.164;2024-03-23T04:45:04;4.90;69.50
75685;HTU21D;64298;46.050;38.164;2024-03-23T04:47:31;4.91;69.58
75685;HTU21D;64298;46.050;38.164;2024-03-23T04:49:57;4.92;69.57
75685;HTU21D;64298;46.050;38.164;2024-03-23T04:52:23;4.93;69.60
75685;HTU21D;64298;46.050;38.164;2024-03-23T04:54:49;4.92;69.81
75685;HTU21D;64298;46.050;38.164;2024-03-23T04:57:15;4.92;69.96
75685;HTU21D;64298;46.050;38.164;2024-03-23T04:59:46;4.94;70.08
75685;HTU21D;64298;46.050;38.164;2024-03-23T05:02:13;4.96;70.10
75685;HTU21D;64298;46.050;38.164;2024-03-23T05:04:40;5.01;69.96
75685;HTU21D;64298;46.050;38.164;2024-03-23T05:07:06;5.04;69.87
75685;HTU21D;64298;46.050;38.164;2024-03-23T05:09:32;5.06;69.88
75685;HTU21D;64298;46.050;38.164;2024-03-23T05:12:01;5.10;69.79
75685;HTU21D;64298;46.050;38.164;2024-03-23T05:14:28;5.12;69.81
75685;HTU21D;64298;46.050;38.164;2024-03-23T05:16:54;5.19;69.69
75685;HTU21D;64298;46.050;38.164;2024-03-23T05:19:21;5.28;69.51
75685;HTU21D;64298;46.050;38.164;2024-03-23T05:21:48;5.33;69.52
75685;HTU21D;64298;46.050;38.164;2024-03-23T05:24:14;5.40;69.57
75685;HTU21D;64298;46.050;38.164;2024-03-23T05:26:40;5.46;69.55
75685;HTU21D;64298;46.050;38.164;2024-03-23T05:29:06;5.51;69.45
75685;HTU21D;64298;46.050;38.164;2024-03-23T05:31:37;5.56;69.34
75685;HTU21D;64298;46.050;38.164;2024-03-23T05:34:03;5.61;69.22
75685;HTU21D;64298;46.050;38.164;2024-03-23T05:36:29;5.62;69.19
75685;HTU21D;64298;46.050;38.164;2024-03-23T05:38:55;5.66;69.22
75685;HTU21D;64298;46.050;38.164;2024-03-23T05:41:21;5.66;69.20
75685;HTU21D;64298;46.050;38.164;2024-03-23T05:43:49;5.70;69.17
75685;HTU21D;64298;46.050;38.164;2024-03-23T05:46:15;5.74;69.10
75685;HTU21D;64298;46.050;38.164;2024-03-23T05:48:41;5.75;69.10
75685;HTU21D;64298;46.050;38.164;2024-03-23T05:51:07;5.79;69.03
75685;HTU21D;64298;46.050;38.164;2024-03-23T05:53:34;5.84;68.92
75685;HTU21D;64298;46.050;38.164;2024-03-23T05:56:02;5.91;68.89
75685;HTU21D;64298;46.050;38.164;2024-03-23T05:58:31;5.97;68.78
75685;HTU21D;64298;46.050;38.164;2024-03-23T06:01:01;6.04;68.66
75685;HTU21D;64298;46.050;38.164;2024-03-23T06:03:30;6.12;68.51
75685;HTU21D;64298;46.050;38.164;2024-03-23T06:05:56;6.17;68.43
75685;HTU21D;64298;46.050;38.164;2024-03-23T06:08:22;6.21;68.32
75685;HTU21D;64298;46.050;38.164;2024-03-23T06:10:49;6.29;68.20
75685;HTU21D;64298;46.050;38.164;2024-03-23T06:13:16;6.39;68.04
75685;HTU21D;64298;46.050;38.164;2024-03-23T06:15:42;6.42;67.94
75685;HTU21D;64298;46.050;38.164;2024-03-23T06:18:08;6.46;67.81
75685;HTU21D;64298;46.050;38.164;2024-03-23T06:20:34;6.48;67.81
75685;HTU21D;64298;46.050;38.164;2024-03-23T06:23:01;6.51;67.80
75685;HTU21D;64298;46.050;38.164;2024-03-23T06:25:29;6.54;67.75
75685;HTU21D;64298;46.050;38.164;2024-03-23T06:27:57;6.58;67.67
75685;HTU21D;64298;46.050;38.164;2024-03-23T06:30:23;6.63;67.61
75685;HTU21D;64298;46.050;38.164;2024-03-23T06:32:49;6.60;67.70
75685;HTU21D;64298;46.050;38.164;2024-03-23T06:35:15;6.66;67.63
75685;HTU21D;64298;46.050;38.164;2024-03-23T06:37:42;6.70;67.46
75685;HTU21D;64298;46.050;38.164;2024-03-23T06:40:09;6.75;67.40
75685;HTU21D;64298;46.050;38.164;2024-03-23T06:42:36;6.82;67.26
75685;HTU21D;64298;46.050;38.164;2024-03-23T06:45:02;6.83;67.15
75685;HTU21D;64298;46.050;38.164;2024-03-23T06:47:30;6.79;67.15
75685;HTU21D;64298;46.050;38.164;2024-03-23T06:49:56;6.78;67.34
75685;HTU21D;64298;46.050;38.164;2024-03-23T06:52:22;6.89;67.25
75685;HTU21D;64298;46.050;38.164;2024-03-23T06:54:48;7.04;66.95
75685;HTU21D;64298;46.050;38.164;2024-03-23T06:57:14;7.19;66.57
75685;HTU21D;64298;46.050;38.164;2024-03-23T06:59:40;7.27;66.36
75685;HTU21D;64298;46.050;38.164;2024-03-23T07:02:06;7.35;66.17
75685;HTU21D;64298;46.050;38.164;2024-03-23T07:04:34;7.41;66.12
75685;HTU21D;64298;46.050;38.164;2024-03-23T07:07:00;7.45;66.09
75685;HTU21D;64298;46.050;38.164;2024-03-23T07:09:28;7.48;65.98
75685;HTU21D;64298;46.050;38.164;2024-03-23T07:11:55;7.50;66.00
75685;HTU21D;64298;46.050;38.164;2024-03-23T07:14:22;7.56;66.04
75685;HTU21D;64298;46.050;38.164;2024-03-23T07:16:48;7.64;65.88
75685;HTU21D;64298;46.050;38.164;2024-03-23T07:19:15;7.75;65.74
75685;HTU21D;64298;46.050;38.164;2024-03-23T07:21:42;7.84;65.60
75685;HTU21D;64298;46.050;38.164;2024-03-23T07:24:09;7.92;65.49
75685;HTU21D;64298;46.050;38.164;2024-03-23T07:26:35;8.05;65.32
75685;HTU21D;64298;46.050;38.164;2024-03-23T07:29:01;8.11;65.18
75685;HTU21D;64298;46.050;38.164;2024-03-23T07:31:27;8.14;65.17
75685;HTU21D;64298;46.050;38.164;2024-03-23T07:33:53;8.16;65.16
75685;HTU21D;64298;46.050;38.164;2024-03-23T07:36:19;8.17;65.24
75685;HTU21D;64298;46.050;38.164;2024-03-23T07:38:45;8.22;65.28
75685;HTU21D;64298;46.050;38.164;2024-03-23T07:41:15;8.24;65.15
75685;HTU21D;64298;46.050;38.164;2024-03-23T07:43:43;8.18;65.37
75685;HTU21D;64298;46.050;38.164;2024-03-23T07:46:09;8.15;65.50
75685;HTU21D;64298;46.050;38.164;2024-03-23T07:48:35;8.18;65.56
75685;HTU21D;64298;46.050;38.164;2024-03-23T07:51:07;8.22;65.46
75685;HTU21D;64298;46.050;38.164;2024-03-23T07:53:35;8.22;65.50
75685;HTU21D;64298;46.050;38.164;2024-03-23T07:56:05;8.22;65.53
75685;HTU21D;64298;46.050;38.164;2024-03-23T07:58:31;8.22;65.58
75685;HTU21D;64298;46.050;38.164;2024-03-23T08:01:12;8.23;65.59
75685;HTU21D;64298;46.050;38.164;2024-03-23T08:03:41;8.30;65.56
75685;HTU21D;64298;46.050;38.164;2024-03-23T08:06:12;8.34;65.44
75685;HTU21D;64298;46.050;38.164;2024-03-23T08:08:39;8.37;65.38
75685;HTU21D;64298;46.050;38.164;2024-03-23T08:11:05;8.42;65.33
75685;HTU21D;64298;46.050;38.164;2024-03-23T08:13:32;8.47;65.24
75685;HTU21D;64298;46.050;38.164;2024-03-23T08:16:02;8.51;65.19
75685;HTU21D;64298;46.050;38.164;2024-03-23T08:18:29;8.52;65.17
75685;HTU21D;64298;46.050;38.164;2024-03-23T08:21:02;8.55;65.22
75685;HTU21D;64298;46.050;38.164;2024-03-23T08:23:33;8.60;65.14
75685;HTU21D;64298;46.050;38.164;2024-03-23T08:26:00;8.61;65.11
75685;HTU21D;64298;46.050;38.164;2024-03-23T08:28:27;8.63;65.07
75685;HTU21D;64298;46.050;38.164;2024-03-23T08:30:54;8.64;64.84
75685;HTU21D;64298;46.050;38.164;2024-03-23T08:33:20;8.68;64.81
75685;HTU21D;64298;46.050;38.164;2024-03-23T08:36:03;8.80;64.62
75685;HTU21D;64298;46.050;38.164;2024-03-23T08:38:30;8.86;64.27
75685;HTU21D;64298;46.050;38.164;2024-03-23T08:41:02;8.97;64.29
75685;HTU21D;64298;46.050;38.164;2024-03-23T08:43:29;9.11;64.02
75685;HTU21D;64298;46.050;38.164;2024-03-23T08:46:09;9.19;63.83
75685;HTU21D;64298;46.050;38.164;2024-03-23T08:48:38;9.27;63.76
75685;HTU21D;64298;46.050;38.164;2024-03-23T08:51:05;9.41;63.55
75685;HTU21D;64298;46.050;38.164;2024-03-23T08:53:32;9.51;63.39
75685;HTU21D;64298;46.050;38.164;2024-03-23T08:55:59;9.55;63.18
75685;HTU21D;64298;46.050;38.164;2024-03-23T08:58:27;9.62;63.15
75685;HTU21D;64298;46.050;38.164;2024-03-23T09:00:55;9.65;63.08
75685;HTU21D;64298;46.050;38.164;2024-03-23T09:03:26;9.68;62.89
75685;HTU21D;64298;46.050;38.164;2024-03-23T09:05:52;9.84;62.95
75685;HTU21D;64298;46.050;38.164;2024-03-23T09:08:20;10.13;62.21
75685;HTU21D;64298;46.050;38.164;2024-03-23T09:10:47;10.24;61.79
75685;HTU21D;64298;46.050;38.164;2024-03-23T09:13:14;10.25;61.45
75685;HTU21D;64298;46.050;38.164;2024-03-23T09:15:50;10.23;61.85
75685;HTU21D;64298;46.050;38.164;2024-03-23T09:18:17;10.23;61.73
75685;HTU21D;64298;46.050;38.164;2024-03-23T09:20:43;10.24;61.53
75685;HTU21D;64298;46.050;38.164;2024-03-23T09:23:09;10.30;61.70
75685;HTU21D;64298;46.050;38.164;2024-03-23T09:25:39;10.33;61.52
75685;HTU21D;64298;46.050;38.164;2024-03-23T09:28:07;10.41;61.68
75685;HTU21D;64298;46.050;38.164;2024-03-23T09:30:36;10.48;61.31
75685;HTU21D;64298;46.050;38.164;2024-03-23T09:33:11;10.55;61.26
75685;HTU21D;64298;46.050;38.164;2024-03-23T09:35:42;10.63;61.13
75685;HTU21D;64298;46.050;38.164;2024-03-23T09:38:08;10.66;61.25
75685;HTU21D;64298;46.050;38.164;2024-03-23T09:40:44;10.75;61.25
75685;HTU21D;64298;46.050;38.164;2024-03-23T09:43:11;10.84;61.06
75685;HTU21D;64298;46.050;38.164;2024-03-23T09:45:39;10.98;60.91
75685;HTU21D;64298;46.050;38.164;2024-03-23T09:48:09;11.18;60.44
75685;HTU21D;64298;46.050;38.164;2024-03-23T09:50:42;11.27;60.32
75685;HTU21D;64298;46.050;38.164;2024-03-23T09:53:10;11.23;60.32
75685;HTU21D;64298;46.050;38.164;2024-03-23T09:55:40;11.15;60.55
75685;HTU21D;64298;46.050;38.164;2024-03-23T09:58:07;11.12;60.52
75685;HTU21D;64298;46.050;38.164;2024-03-23T10:00:52;11.09;60.51
75685;HTU21D;64298;46.050;38.164;2024-03-23T10:03:18;11.11;60.51
75685;HTU21D;64298;46.050;38.164;2024-03-23T10:05:44;11.17;60.54
75685;HTU21D;64298;46.050;38.164;2024-03-23T10:10:43;11.24;60.25
75685;HTU21D;64298;46.050;38.164;2024-03-23T10:13:09;11.18;60.44
75685;HTU21D;64298;46.050;38.164;2024-03-23T10:15:36;11.20;60.36
75685;HTU21D;64298;46.050;38.164;2024-03-23T10:18:19;11.36;60.18
75685;HTU21D;64298;46.050;38.164;2024-03-23T10:20:52;11.49;60.05
75685;HTU21D;64298;46.050;38.164;2024-03-23T10:23:35;11.55;59.41
75685;HTU21D;64298;46.050;38.164;2024-03-23T10:26:21;11.46;59.32
75685;HTU21D;64298;46.050;38.164;2024-03-23T10:31:17;11.30;59.92
75685;HTU21D;64298;46.050;38.164;2024-03-23T10:33:49;11.29;60.02
75685;HTU21D;64298;46.050;38.164;2024-03-23T10:36:34;11.29;59.80
75685;HTU21D;64298;46.050;38.164;2024-03-23T10:39:01;11.32;59.60
75685;HTU21D;64298;46.050;38.164;2024-03-23T10:41:31;11.39;59.46
75685;HTU21D;64298;46.050;38.164;2024-03-23T10:43:58;11.51;59.38
75685;HTU21D;64298;46.050;38.164;2024-03-23T10:46:25;11.64;59.18
75685;HTU21D;64298;46.050;38.164;2024-03-23T10:48:51;11.77;59.12
75685;HTU21D;64298;46.050;38.164;2024-03-23T10:51:17;11.74;59.11
75685;HTU21D;64298;46.050;38.164;2024-03-23T10:54:04;11.59;59.16
75685;HTU21D;64298;46.050;38.164;2024-03-23T10:56:34;11.39;59.56
75685;HTU21D;64298;46.050;38.164;2024-03-23T10:59:02;11.34;59.78
75685;HTU21D;64298;46.050;38.164;2024-03-23T11:02:00;11.37;59.78
75685;HTU21D;64298;46.050;38.164;2024-03-23T11:06:57;11.45;59.69
75685;HTU21D;64298;46.050;38.164;2024-03-23T11:09:42;11.44;59.82
75685;HTU21D;64298;46.050;38.164;2024-03-23T11:17:19;11.67;59.42
75685;HTU21D;64298;46.050;38.164;2024-03-23T11:25:19;11.78;58.89
75685;HTU21D;64298;46.050;38.164;2024-03-23T11:27:51;11.48;59.25
75685;HTU21D;64298;46.050;38.164;2024-03-23T11:30:18;11.39;59.74
75685;HTU21D;64298;46.050;38.164;2024-03-23T11:32:48;11.39;59.77
75685;HTU21D;64298;46.050;38.164;2024-03-23T11:35:44;11.25;59.75
75685;HTU21D;64298;46.050;38.164;2024-03-23T11:38:12;11.12;60.23
75685;HTU21D;64298;46.050;38.164;2024-03-23T11:40:42;11.09;60.28
75685;HTU21D;64298;46.050;38.164;2024-03-23T11:43:10;10.95;60.55
75685;HTU21D;64298;46.050;38.164;2024-03-23T11:45:46;10.92;60.69
75685;HTU21D;64298;46.050;38.164;2024-03-23T11:48:19;10.89;60.81
75685;HTU21D;64298;46.050;38.164;2024-03-23T11:50:47;10.81;60.83
75685;HTU21D;64298;46.050;38.164;2024-03-23T11:53:26;10.70;61.07
75685;HTU21D;64298;46.050;38.164;2024-03-23T11:55:59;10.60;61.22
75685;HTU21D;64298;46.050;38.164;2024-03-23T11:58:26;10.58;61.30
75685;HTU21D;64298;46.050;38.164;2024-03-23T12:01:02;10.66;61.38
75685;HTU21D;64298;46.050;38.164;2024-03-23T12:03:30;10.69;61.13
75685;HTU21D;64298;46.050;38.164;2024-03-23T12:05:57;10.70;61.27
75685;HTU21D;64298;46.050;38.164;2024-03-23T12:11:13;10.74;61.05
75685;HTU21D;64298;46.050;38.164;2024-03-23T12:13:42;10.69;61.15
75685;HTU21D;64298;46.050;38.164;2024-03-23T12:16:20;10.63;61.31
75685;HTU21D;64298;46.050;38.164;2024-03-23T12:18:48;10.56;61.33
75685;HTU21D;64298;46.050;38.164;2024-03-23T12:21:15;10.48;61.57
75685;HTU21D;64298;46.050;38.164;2024-03-23T12:23:41;10.48;61.69
75685;HTU21D;64298;46.050;38.164;2024-03-23T12:26:11;10.48;61.72
75685;HTU21D;64298;46.050;38.164;2024-03-23T12:28:38;10.53;61.71
75685;HTU21D;64298;46.050;38.164;2024-03-23T12:31:04;10.50;61.65
75685;HTU21D;64298;46.050;38.164;2024-03-23T12:33:31;10.46;61.65
75685;HTU21D;64298;46.050;38.164;2024-03-23T12:35:57;10.37;61.78
75685;HTU21D;64298;46.050;38.164;2024-03-23T12:38:23;10.31;61.98
75685;HTU21D;64298;46.050;38.164;2024-03-23T12:40:50;10.30;62.01
75685;HTU21D;64298;46.050;38.164;2024-03-23T12:43:17;10.30;62.06
75685;HTU21D;64298;46.050;38.164;2024-03-23T12:45:49;10.26;62.22
75685;HTU21D;64298;46.050;38.164;2024-03-23T12:48:18;10.23;62.33
75685;HTU21D;64298;46.050;38.164;2024-03-23T12:50:44;10.19;62.48
75685;HTU21D;64298;46.050;38.164;2024-03-23T12:53:10;10.16;62.69
75685;HTU21D;64298;46.050;38.164;2024-03-23T12:55:36;10.11;62.94
75685;HTU21D;64298;46.050;38.164;2024-03-23T12:58:02;9.99;63.07
75685;HTU21D;64298;46.050;38.164;2024-03-23T13:00:29;9.95;63.31
75685;HTU21D;64298;46.050;38.164;2024-03-23T13:02:55;9.91;63.49
75685;HTU21D;64298;46.050;38.164;2024-03-23T13:05:20;9.86;63.56
75685;HTU21D;64298;46.050;38.164;2024-03-23T13:07:46;9.80;63.88
75685;HTU21D;64298;46.050;38.164;2024-03-23T13:10:12;9.75;64.05
75685;HTU21D;64298;46.050;38.164;2024-03-23T13:12:40;9.65;64.12
75685;HTU21D;64298;46.050;38.164;2024-03-23T13:15:06;9.63;64.40
75685;HTU21D;64298;46.050;38.164;2024-03-23T13:17:32;9.62;64.50
75685;HTU21D;64298;46.050;38.164;2024-03-23T13:19:58;9.68;64.40
75685;HTU21D;64298;46.050;38.164;2024-03-23T13:22:24;9.76;64.37
75685;HTU21D;64298;46.050;38.164;2024-03-23T13:24:49;9.82;64.32
75685;HTU21D;64298;46.050;38.164;2024-03-23T13:27:16;9.89;64.27
75685;HTU21D;64298;46.050;38.164;2024-03-23T13:29:42;9.90;64.30
75685;HTU21D;64298;46.050;38.164;2024-03-23T13:32:08;9.96;64.21
75685;HTU21D;64298;46.050;38.164;2024-03-23T13:34:34;10.01;64.12
75685;HTU21D;64298;46.050;38.164;2024-03-23T13:37:00;10.05;64.03
75685;HTU21D;64298;46.050;38.164;2024-03-23T13:39:27;9.99;64.06
75685;HTU21D;64298;46.050;38.164;2024-03-23T13:41:53;9.94;64.24
75685;HTU21D;64298;46.050;38.164;2024-03-23T13:44:20;9.92;64.31
75685;HTU21D;64298;46.050;38.164;2024-03-23T13:46:46;9.89;64.39
75685;HTU21D;64298;46.050;38.164;2024-03-23T13:49:38;9.83;64.50
75685;HTU21D;64298;46.050;38.164;2024-03-23T13:52:06;9.72;64.56
75685;HTU21D;64298;46.050;38.164;2024-03-23T13:54:32;9.65;64.79
75685;HTU21D;64298;46.050;38.164;2024-03-23T13:56:58;9.54;65.00
75685;HTU21D;64298;46.050;38.164;2024-03-23T13:59:24;9.53;65.11
75685;HTU21D;64298;46.050;38.164;2024-03-23T14:01:51;9.50;65.12
75685;HTU21D;64298;46.050;38.164;2024-03-23T14:04:17;9.50;65.11
75685;HTU21D;64298;46.050;38.164;2024-03-23T14:06:44;9.55;65.07
75685;HTU21D;64298;46.050;38.164;2024-03-23T14:09:14;9.59;64.95
75685;HTU21D;64298;46.050;38.164;2024-03-23T14:11:59;9.63;64.94
75685;HTU21D;64298;46.050;38.164;2024-03-23T14:14:26;9.61;64.90
75685;HTU21D;64298;46.050;38.164;2024-03-23T14:16:51;9.52;65.06
75685;HTU21D;64298;46.050;38.164;2024-03-23T14:19:37;9.50;65.19
75685;HTU21D;64298;46.050;38.164;2024-03-23T14:22:03;9.52;65.18
75685;HTU21D;64298;46.050;38.164;2024-03-23T14:24:33;9.54;65.10
75685;HTU21D;64298;46.050;38.164;2024-03-23T14:26:59;9.55;65.15
75685;HTU21D;64298;46.050;38.164;2024-03-23T14:29:28;9.53;65.17
75685;HTU21D;64298;46.050;38.164;2024-03-23T14:31:54;9.51;65.23
75685;HTU21D;64298;46.050;38.164;2024-03-23T14:34:20;9.55;65.19
75685;HTU21D;64298;46.050;38.164;2024-03-23T14:36:46;9.59;65.13
75685;HTU21D;64298;46.050;38.164;2024-03-23T14:39:12;9.59;65.14
75685;HTU21D;64298;46.050;38.164;2024-03-23T14:41:38;9.57;65.10
75685;HTU21D;64298;46.050;38.164;2024-03-23T14:44:04;9.52;65.14
75685;HTU21D;64298;46.050;38.164;2024-03-23T14:46:30;9.45;65.26
75685;HTU21D;64298;46.050;38.164;2024-03-23T14:48:57;9.41;65.33
75685;HTU21D;64298;46.050;38.164;2024-03-23T14:51:23;9.39;65.40
75685;HTU21D;64298;46.050;38.164;2024-03-23T14:53:49;9.37;65.42
75685;HTU21D;64298;46.050;38.164;2024-03-23T14:56:15;9.35;65.45
75685;HTU21D;64298;46.050;38.164;2024-03-23T14:58:41;9.27;65.53
75685;HTU21D;64298;46.050;38.164;2024-03-23T15:01:08;9.18;65.68
75685;HTU21D;64298;46.050;38.164;2024-03-23T15:03:38;9.10;65.78
75685;HTU21D;64298;46.050;38.164;2024-03-23T15:06:06;8.98;65.88
75685;HTU21D;64298;46.050;38.164;2024-03-23T15:08:32;8.90;66.03
75685;HTU21D;64298;46.050;38.164;2024-03-23T15:11:01;8.86;66.14
75685;HTU21D;64298;46.050;38.164;2024-03-23T15:13:34;8.82;66.13
75685;HTU21D;64298;46.050;38.164;2024-03-23T15:16:00;8.82;66.10
75685;HTU21D;64298;46.050;38.164;2024-03-23T15:18:26;8.86;66.01
75685;HTU21D;64298;46.050;38.164;2024-03-23T15:20:56;8.89;65.98
75685;HTU21D;64298;46.050;38.164;2024-03-23T15:23:23;8.89;65.89
75685;HTU21D;64298;46.050;38.164;2024-03-23T15:25:56;8.87;65.97
75685;HTU21D;64298;46.050;38.164;2024-03-23T15:28:23;8.85;66.01
75685;HTU21D;64298;46.050;38.164;2024-03-23T15:30:49;8.82;66.03
75685;HTU21D;64298;46.050;38.164;2024-03-23T15:33:15;8.78;66.17
75685;HTU21D;64298;46.050;38.164;2024-03-23T15:35:41;8.76;66.14
75685;HTU21D;64298;46.050;38.164;2024-03-23T15:38:07;8.78;66.15
75685;HTU21D;64298;46.050;38.164;2024-03-23T15:40:33;8.80;66.05
75685;HTU21D;64298;46.050;38.164;2024-03-23T15:42:59;8.83;66.00
75685;HTU21D;64298;46.050;38.164;2024-03-23T15:45:26;8.83;65.98
75685;HTU21D;64298;46.050;38.164;2024-03-23T15:47:52;8.78;66.13
75685;HTU21D;64298;46.050;38.164;2024-03-23T15:50:18;8.68;66.27
75685;HTU21D;64298;46.050;38.164;2024-03-23T15:52:44;8.60;66.40
75685;HTU21D;64298;46.050;38.164;2024-03-23T15:55:10;8.58;66.53
75685;HTU21D;64298;46.050;38.164;2024-03-23T15:57:36;8.57;66.56
75685;HTU21D;64298;46.050;38.164;2024-03-23T16:00:03;8.57;66.50
75685;HTU21D;64298;46.050;38.164;2024-03-23T16:02:37;8.60;66.43
75685;HTU21D;64298;46.050;38.164;2024-03-23T16:05:03;8.61;66.43
75685;HTU21D;64298;46.050;38.164;2024-03-23T16:07:29;8.57;66.45
75685;HTU21D;64298;46.050;38.164;2024-03-23T16:09:55;8.56;66.53
75685;HTU21D;64298;46.050;38.164;2024-03-23T16:12:22;8.49;66.61
75685;HTU21D;64298;46.050;38.164;2024-03-23T16:14:48;8.51;66.54
75685;HTU21D;64298;46.050;38.164;2024-03-23T16:17:13;8.55;66.49
75685;HTU21D;64298;46.050;38.164;2024-03-23T16:19:40;8.58;66.37
75685;HTU21D;64298;46.050;38.164;2024-03-23T16:22:06;8.61;66.31
75685;HTU21D;64298;46.050;38.164;2024-03-23T16:24:32;8.63;66.26
75685;HTU21D;64298;46.050;38.164;2024-03-23T16:26:57;8.64;66.20
75685;HTU21D;64298;46.050;38.164;2024-03-23T16:29:24;8.64;66.26
75685;HTU21D;64298;46.050;38.164;2024-03-23T16:31:51;8.63;66.24